createdAt,value
2018-06-17T00:00:36.997Z,57.27
2018-06-17T00:01:36.897Z,57.19
2018-06-17T00:02:36.873Z,57.2
2018-06-17T00:03:36.962Z,57.23
2018-06-17T00:04:36.883Z,57.31
2018-06-17T00:05:36.948Z,57.24
2018-06-17T00:06:36.810Z,57.36
2018-06-17T00:07:36.966Z,57.34
2018-06-17T00:08:36.938Z,57.26
2018-06-17T00:09:36.888Z,57.17
2018-06-17T00:10:36.914Z,57.27
2018-06-17T00:11:36.917Z,57.36
2018-06-17T00:12:37.164Z,57.19
2018-06-17T00:13:36.866Z,57.28
2018-06-17T00:14:36.807Z,57.23
2018-06-17T00:15:36.812Z,57.2
2018-06-17T00:16:36.938Z,57.34
2018-06-17T00:17:36.913Z,57.24
2018-06-17T00:18:36.914Z,57.24
2018-06-17T00:19:37.072Z,57.3
2018-06-17T00:20:36.851Z,57.26
2018-06-17T00:21:36.915Z,57.38
2018-06-17T00:22:37.109Z,57.26
2018-06-17T00:23:37.032Z,57.31
2018-06-17T00:24:36.818Z,57.11
2018-06-17T00:25:36.798Z,57.18
2018-06-17T00:26:36.947Z,57.37
2018-06-17T00:27:36.867Z,57.38
2018-06-17T00:28:36.801Z,57.29
2018-06-17T00:29:37.058Z,57.29
2018-06-17T00:30:37.058Z,57.32
2018-06-17T00:31:36.968Z,57.33
2018-06-17T00:32:37.066Z,57.28
2018-06-17T00:33:36.867Z,57.35
2018-06-17T00:34:37.003Z,57.29
2018-06-17T00:35:36.996Z,57.32
2018-06-17T00:36:36.990Z,57.27
2018-06-17T00:37:37.064Z,57.22
2018-06-17T00:38:36.879Z,57.21
2018-06-17T00:39:37.040Z,57.24
2018-06-17T00:40:36.879Z,57.2
2018-06-17T00:41:36.857Z,57.29
2018-06-17T00:42:46.911Z,57.23
2018-06-17T00:43:37.098Z,57.42
2018-06-17T00:44:36.772Z,57.33
2018-06-17T00:45:36.945Z,57.4
2018-06-17T00:46:37.125Z,57.25
2018-06-17T00:47:36.850Z,57.35
2018-06-17T00:48:37.095Z,57.28
2018-06-17T00:49:36.765Z,57.28
2018-06-17T00:50:36.818Z,57.3
2018-06-17T00:51:37.050Z,57.29
2018-06-17T00:52:36.825Z,57.24
2018-06-17T00:53:36.919Z,57.42
2018-06-17T00:54:37.078Z,57.13
2018-06-17T00:55:37.122Z,57.35
2018-06-17T00:56:36.813Z,57.4
2018-06-17T00:57:37.098Z,57.34
2018-06-17T00:58:36.844Z,57.22
2018-06-17T00:59:37.049Z,57.39
2018-06-17T01:00:36.874Z,57.25
2018-06-17T01:01:36.954Z,57.24
2018-06-17T01:02:36.833Z,57.19
2018-06-17T01:03:37.017Z,57.27
2018-06-17T01:04:36.947Z,57.3
2018-06-17T01:05:36.978Z,57.4
2018-06-17T01:06:37.056Z,57.12
2018-06-17T01:07:36.810Z,57.36
2018-06-17T01:08:36.868Z,57.34
2018-06-17T01:09:37.073Z,57.37
2018-06-17T01:10:36.902Z,57.38
2018-06-17T01:11:36.909Z,57.29
2018-06-17T01:12:36.974Z,57.48
2018-06-17T01:13:36.875Z,57.33
2018-06-17T01:14:36.930Z,57.31
2018-06-17T01:15:37.048Z,57.26
2018-06-17T01:16:36.779Z,57.38
2018-06-17T01:17:37.125Z,57.23
2018-06-17T01:18:36.857Z,57.08
2018-06-17T01:19:36.957Z,57.4
2018-06-17T01:20:36.942Z,57.34
2018-06-17T01:21:36.826Z,57.31
2018-06-17T01:22:37.002Z,57.27
2018-06-17T01:23:36.795Z,57.32
2018-06-17T01:24:36.960Z,57.41
2018-06-17T01:26:07.860Z,57.35
2018-06-17T01:26:36.797Z,57.24
2018-06-17T01:27:36.829Z,57.2
2018-06-17T01:28:36.809Z,57.33
2018-06-17T01:29:36.891Z,57.2
2018-06-17T01:30:36.823Z,57.35
2018-06-17T01:31:36.935Z,57.33
2018-06-17T01:32:36.906Z,57.22
2018-06-17T01:33:36.988Z,57.3
2018-06-17T01:34:37.114Z,57.35
2018-06-17T01:35:37.044Z,57.27
2018-06-17T01:36:36.816Z,57.33
2018-06-17T01:37:36.763Z,57.44
2018-06-17T01:38:36.894Z,57.16
2018-06-17T01:39:37.129Z,57.39
2018-06-17T01:40:37.220Z,57.28
2018-06-17T01:41:36.969Z,57.34
2018-06-17T01:42:36.891Z,57.27
2018-06-17T01:43:37.020Z,57.27
2018-06-17T01:44:37.212Z,57.35
2018-06-17T01:45:37.078Z,57.21
2018-06-17T01:46:36.927Z,57.37
2018-06-17T01:47:36.927Z,57.36
2018-06-17T01:48:37.060Z,57.33
2018-06-17T01:49:37.075Z,57.26
2018-06-17T01:50:37.078Z,57.27
2018-06-17T01:51:36.922Z,57.39
2018-06-17T01:52:36.875Z,57.37
2018-06-17T01:53:36.865Z,57.3
2018-06-17T01:54:36.912Z,57.23
2018-06-17T01:55:36.743Z,57.3
2018-06-17T01:56:36.828Z,57.31
2018-06-17T01:57:36.942Z,57.21
2018-06-17T01:58:36.887Z,57.3
2018-06-17T01:59:37.049Z,57.35
2018-06-17T02:00:37.058Z,57.28
2018-06-17T02:01:37.096Z,57.28
2018-06-17T02:02:36.842Z,57.27
2018-06-17T02:03:37.008Z,57.37
2018-06-17T02:04:36.797Z,57.25
2018-06-17T02:05:37.033Z,57.29
2018-06-17T02:06:36.986Z,57.32
2018-06-17T02:07:36.795Z,57.31
2018-06-17T02:08:37.145Z,57.27
2018-06-17T02:09:36.975Z,57.33
2018-06-17T02:10:37.000Z,57.33
2018-06-17T02:11:36.912Z,57.35
2018-06-17T02:12:37.020Z,57.33
2018-06-17T02:13:36.635Z,57.25
2018-06-17T02:14:36.891Z,57.26
2018-06-17T02:15:36.919Z,57.3
2018-06-17T02:16:37.015Z,57.3
2018-06-17T02:17:36.950Z,57.26
2018-06-17T02:18:37.036Z,57.21
2018-06-17T02:19:36.972Z,57.27
2018-06-17T02:20:36.987Z,57.36
2018-06-17T02:21:36.832Z,57.27
2018-06-17T02:22:36.839Z,57.2
2018-06-17T02:23:36.909Z,57.22
2018-06-17T02:24:36.974Z,57.35
2018-06-17T02:25:37.014Z,57.39
2018-06-17T02:26:36.927Z,57.38
2018-06-17T02:27:36.863Z,57.35
2018-06-17T02:28:36.903Z,57.32
2018-06-17T02:29:36.908Z,57.41
2018-06-17T02:30:36.825Z,57.33
2018-06-17T02:31:36.978Z,57.32
2018-06-17T02:32:36.859Z,57.4
2018-06-17T02:33:36.912Z,57.25
2018-06-17T02:34:36.877Z,57.37
2018-06-17T02:35:36.973Z,57.4
2018-06-17T02:36:36.913Z,57.44
2018-06-17T02:37:36.996Z,57.32
2018-06-17T02:38:36.811Z,57.28
2018-06-17T02:39:37.030Z,57.45
2018-06-17T02:40:36.738Z,57.32
2018-06-17T02:41:36.769Z,57.24
2018-06-17T02:42:36.897Z,57.39
2018-06-17T02:43:36.915Z,57.31
2018-06-17T02:44:36.863Z,57.23
2018-06-17T02:45:36.997Z,57.34
2018-06-17T02:46:36.797Z,57.23
2018-06-17T02:47:36.903Z,57.22
2018-06-17T02:48:37.113Z,57.42
2018-06-17T02:49:36.806Z,57.18
2018-06-17T02:50:37.074Z,57.17
2018-06-17T02:51:36.870Z,57.3
2018-06-17T02:52:36.909Z,57.36
2018-06-17T02:53:36.926Z,57.23
2018-06-17T02:54:36.954Z,57.33
2018-06-17T02:55:36.915Z,57.32
2018-06-17T02:56:36.778Z,57.32
2018-06-17T02:57:36.936Z,57.29
2018-06-17T02:58:36.734Z,57.35
2018-06-17T02:59:36.939Z,57.29
2018-06-17T03:00:36.866Z,57.31
2018-06-17T03:01:37.097Z,57.36
2018-06-17T03:02:36.871Z,57.27
2018-06-17T03:03:36.987Z,57.3
2018-06-17T03:04:36.959Z,57.39
2018-06-17T03:05:36.847Z,57.17
2018-06-17T03:06:37.099Z,57.17
2018-06-17T03:07:36.780Z,57.38
2018-06-17T03:08:36.842Z,57.36
2018-06-17T03:09:36.984Z,57.36
2018-06-17T03:10:36.972Z,57.35
2018-06-17T03:11:37.062Z,57.37
2018-06-17T03:12:36.961Z,57.25
2018-06-17T03:13:36.916Z,57.3
2018-06-17T03:14:36.974Z,57.35
2018-06-17T03:15:36.917Z,57.34
2018-06-17T03:16:36.871Z,57.34
2018-06-17T03:17:36.949Z,57.43
2018-06-17T03:18:36.968Z,57.25
2018-06-17T03:19:37.175Z,57.37
2018-06-17T03:20:37.026Z,57.47
2018-06-17T03:21:36.858Z,57.27
2018-06-17T03:22:36.936Z,57.18
2018-06-17T03:23:37.004Z,57.29
2018-06-17T03:24:36.779Z,57.33
2018-06-17T03:25:36.733Z,57.27
2018-06-17T03:26:36.889Z,57.25
2018-06-17T03:27:37.056Z,57.24
2018-06-17T03:28:36.929Z,57.34
2018-06-17T03:29:37.164Z,57.24
2018-06-17T03:30:36.988Z,57.37
2018-06-17T03:31:36.957Z,57.27
2018-06-17T03:32:36.983Z,57.39
2018-06-17T03:33:36.917Z,57.28
2018-06-17T03:34:36.945Z,57.25
2018-06-17T03:35:36.874Z,57.26
2018-06-17T03:36:36.787Z,57.4
2018-06-17T03:37:36.784Z,57.33
2018-06-17T03:38:36.955Z,57.42
2018-06-17T03:39:36.969Z,57.23
2018-06-17T03:40:36.945Z,57.28
2018-06-17T03:41:36.987Z,57.28
2018-06-17T03:42:36.955Z,57.28
2018-06-17T03:43:36.835Z,57.32
2018-06-17T03:44:36.776Z,57.33
2018-06-17T03:45:36.748Z,57.37
2018-06-17T03:46:36.801Z,57.41
2018-06-17T03:47:36.826Z,57.37
2018-06-17T03:48:36.863Z,57.37
2018-06-17T03:49:36.968Z,57.32
2018-06-17T03:50:36.762Z,57.26
2018-06-17T03:51:36.810Z,57.33
2018-06-17T03:52:36.842Z,57.17
2018-06-17T03:53:36.965Z,57.36
2018-06-17T03:54:36.670Z,57.35
2018-06-17T03:55:36.788Z,57.41
2018-06-17T03:56:36.846Z,57.44
2018-06-17T03:57:36.830Z,57.36
2018-06-17T03:58:36.948Z,57.32
2018-06-17T03:59:36.760Z,57.37
2018-06-17T04:00:36.949Z,57.37
2018-06-17T04:01:36.942Z,57.53
2018-06-17T04:02:36.767Z,57.28
2018-06-17T04:03:36.736Z,57.34
2018-06-17T04:04:36.962Z,57.23
2018-06-17T04:05:36.762Z,57.28
2018-06-17T04:06:37.069Z,57.41
2018-06-17T04:07:36.943Z,57.51
2018-06-17T04:08:37.043Z,57.26
2018-06-17T04:09:36.852Z,57.23
2018-06-17T04:10:36.941Z,57.35
2018-06-17T04:11:36.963Z,57.39
2018-06-17T04:12:36.734Z,57.42
2018-06-17T04:13:36.946Z,57.3
2018-06-17T04:14:36.993Z,57.31
2018-06-17T04:15:36.865Z,57.3
2018-06-17T04:16:37.003Z,57.49
2018-06-17T04:17:36.897Z,57.43
2018-06-17T04:18:36.998Z,57.32
2018-06-17T04:19:36.807Z,57.48
2018-06-17T04:20:36.791Z,57.36
2018-06-17T04:21:36.778Z,57.39
2018-06-17T04:22:37.003Z,57.3
2018-06-17T04:23:36.847Z,57.43
2018-06-17T04:24:36.832Z,57.31
2018-06-17T04:25:37.098Z,57.4
2018-06-17T04:26:36.837Z,57.36
2018-06-17T04:27:36.774Z,57.38
2018-06-17T04:28:37.052Z,57.32
2018-06-17T04:29:36.745Z,57.38
2018-06-17T04:30:36.721Z,57.26
2018-06-17T04:31:36.787Z,57.29
2018-06-17T04:32:36.966Z,57.39
2018-06-17T04:33:36.952Z,57.37
2018-06-17T04:34:36.911Z,57.36
2018-06-17T04:35:36.962Z,57.37
2018-06-17T04:36:37.063Z,57.32
2018-06-17T04:37:36.813Z,57.44
2018-06-17T04:38:36.997Z,57.32
2018-06-17T04:39:46.847Z,57.24
2018-06-17T04:40:37.129Z,57.42
2018-06-17T04:41:36.906Z,57.36
2018-06-17T04:42:36.852Z,57.35
2018-06-17T04:43:36.965Z,57.3
2018-06-17T04:44:36.954Z,57.37
2018-06-17T04:45:37.004Z,57.3
2018-06-17T04:46:36.887Z,57.31
2018-06-17T04:47:36.906Z,57.41
2018-06-17T04:48:36.935Z,57.3
2018-06-17T04:49:36.740Z,57.35
2018-06-17T04:50:36.814Z,57.28
2018-06-17T04:51:36.969Z,57.23
2018-06-17T04:52:36.781Z,57.42
2018-06-17T04:53:36.835Z,57.28
2018-06-17T04:54:36.785Z,57.43
2018-06-17T04:55:36.751Z,57.28
2018-06-17T04:56:36.821Z,57.34
2018-06-17T04:57:36.874Z,57.4
2018-06-17T04:58:36.924Z,57.34
2018-06-17T04:59:36.903Z,57.33
2018-06-17T05:00:36.848Z,57.33
2018-06-17T05:01:36.790Z,57.34
2018-06-17T05:02:36.930Z,57.32
2018-06-17T05:03:36.882Z,57.39
2018-06-17T05:04:36.689Z,57.4
2018-06-17T05:05:36.878Z,57.42
2018-06-17T05:06:36.977Z,57.31
2018-06-17T05:07:36.798Z,57.28
2018-06-17T05:08:36.834Z,57.35
2018-06-17T05:09:36.865Z,57.25
2018-06-17T05:10:37.059Z,57.22
2018-06-17T05:11:36.819Z,57.49
2018-06-17T05:12:36.978Z,57.28
2018-06-17T05:13:47.087Z,57.36
2018-06-17T05:14:36.944Z,57.35
2018-06-17T05:15:36.766Z,57.15
2018-06-17T05:16:36.879Z,57.31
2018-06-17T05:17:36.830Z,57.31
2018-06-17T05:18:37.110Z,57.29
2018-06-17T05:19:36.778Z,57.41
2018-06-17T05:20:36.725Z,57.39
2018-06-17T05:21:37.501Z,57.37
2018-06-17T05:22:36.855Z,57.3
2018-06-17T05:23:46.757Z,57.33
2018-06-17T05:24:37.201Z,57.27
2018-06-17T05:25:36.878Z,57.33
2018-06-17T05:26:37.005Z,57.3
2018-06-17T05:27:36.941Z,57.24
2018-06-17T05:28:37.180Z,57.31
2018-06-17T05:29:37.055Z,57.27
2018-06-17T05:30:36.855Z,57.33
2018-06-17T05:31:36.945Z,57.31
2018-06-17T05:32:36.893Z,57.28
2018-06-17T05:33:36.762Z,57.32
2018-06-17T05:34:36.754Z,57.2
2018-06-17T05:35:36.925Z,57.27
2018-06-17T05:36:36.764Z,57.39
2018-06-17T05:37:37.030Z,57.25
2018-06-17T05:38:36.745Z,57.34
2018-06-17T05:39:36.771Z,57.28
2018-06-17T05:40:36.784Z,57.29
2018-06-17T05:41:37.047Z,57.28
2018-06-17T05:42:36.932Z,57.32
2018-06-17T05:43:36.793Z,57.27
2018-06-17T05:44:36.964Z,57.29
2018-06-17T05:45:36.954Z,57.29
2018-06-17T05:46:36.839Z,57.32
2018-06-17T05:47:37.071Z,57.3
2018-06-17T05:48:36.642Z,57.25
2018-06-17T05:49:36.882Z,57.32
2018-06-17T05:50:36.952Z,57.26
2018-06-17T05:51:36.959Z,57.24
2018-06-17T05:52:36.822Z,57.27
2018-06-17T05:53:36.859Z,57.33
2018-06-17T05:54:36.866Z,57.23
2018-06-17T05:55:37.237Z,57.35
2018-06-17T05:56:36.817Z,57.41
2018-06-17T05:57:36.730Z,57.42
2018-06-17T05:58:36.840Z,57.21
2018-06-17T05:59:36.740Z,57.2
2018-06-17T06:00:36.935Z,57.37
2018-06-17T06:01:36.946Z,57.28
2018-06-17T06:02:36.902Z,57.19
2018-06-17T06:03:36.799Z,57.43
2018-06-17T06:04:36.970Z,57.3
2018-06-17T06:05:36.827Z,57.24
2018-06-17T06:06:36.728Z,57.17
2018-06-17T06:07:36.884Z,57.24
2018-06-17T06:08:36.839Z,57.26
2018-06-17T06:09:36.804Z,57.29
2018-06-17T06:10:36.735Z,57.24
2018-06-17T06:11:36.862Z,57.16
2018-06-17T06:12:36.923Z,57.27
2018-06-17T06:13:36.805Z,57.25
2018-06-17T06:14:36.879Z,57.21
2018-06-17T06:15:36.700Z,57.2
2018-06-17T06:16:36.924Z,57.26
2018-06-17T06:17:37.080Z,57.18
2018-06-17T06:18:36.927Z,57.13
2018-06-17T06:19:36.757Z,57.22
2018-06-17T06:20:36.763Z,57.21
2018-06-17T06:21:37.028Z,57.32
2018-06-17T06:22:36.919Z,57.33
2018-06-17T06:23:36.793Z,57.22
2018-06-17T06:24:36.744Z,57.24
2018-06-17T06:25:37.070Z,57.26
2018-06-17T06:26:37.016Z,57.24
2018-06-17T06:27:36.984Z,57.17
2018-06-17T06:28:36.847Z,57.21
2018-06-17T06:29:36.706Z,57.19
2018-06-17T06:30:36.831Z,57.23
2018-06-17T06:31:37.019Z,57.15
2018-06-17T06:32:36.919Z,57.21
2018-06-17T06:33:36.681Z,57.17
2018-06-17T06:34:36.851Z,57.22
2018-06-17T06:35:36.863Z,57.32
2018-06-17T06:36:36.667Z,57.17
2018-06-17T06:37:37.004Z,57.16
2018-06-17T06:38:36.827Z,57.22
2018-06-17T06:39:36.897Z,57.25
2018-06-17T06:40:36.863Z,57.24
2018-06-17T06:41:36.929Z,57.18
2018-06-17T06:42:36.760Z,57.14
2018-06-17T06:43:37.120Z,57.15
2018-06-17T06:44:36.893Z,57.26
2018-06-17T06:45:36.893Z,57.19
2018-06-17T06:46:36.949Z,57.17
2018-06-17T06:47:36.775Z,57.18
2018-06-17T06:48:36.949Z,57.18
2018-06-17T06:49:36.785Z,57.13
2018-06-17T06:50:36.741Z,57.17
2018-06-17T06:51:36.749Z,57.02
2018-06-17T06:52:36.787Z,57.13
2018-06-17T06:53:36.747Z,57.2
2018-06-17T06:54:36.873Z,57.19
2018-06-17T06:55:36.925Z,57.2
2018-06-17T06:56:36.793Z,57.14
2018-06-17T06:57:36.822Z,57.11
2018-06-17T06:58:37.057Z,57.15
2018-06-17T06:59:37.030Z,57.16
2018-06-17T07:00:36.708Z,57.11
2018-06-17T07:01:36.865Z,57.18
2018-06-17T07:02:36.940Z,57.14
2018-06-17T07:03:36.984Z,57.12
2018-06-17T07:04:36.936Z,57.19
2018-06-17T07:05:36.853Z,57.17
2018-06-17T07:06:36.779Z,57.11
2018-06-17T07:07:36.709Z,57.22
2018-06-17T07:08:36.875Z,57.15
2018-06-17T07:09:36.653Z,57.14
2018-06-17T07:10:36.985Z,57.16
2018-06-17T07:11:36.907Z,57.2
2018-06-17T07:12:36.951Z,57.05
2018-06-17T07:13:36.741Z,57.15
2018-06-17T07:14:36.700Z,57.11
2018-06-17T07:15:36.834Z,57.22
2018-06-17T07:16:36.855Z,57
2018-06-17T07:17:36.766Z,57.25
2018-06-17T07:18:36.747Z,57.15
2018-06-17T07:19:36.932Z,57.25
2018-06-17T07:20:36.826Z,57.12
2018-06-17T07:21:36.816Z,57.12
2018-06-17T07:22:36.787Z,57.18
2018-06-17T07:23:36.793Z,57.19
2018-06-17T07:24:36.782Z,57.1
2018-06-17T07:25:36.785Z,57.17
2018-06-17T07:26:36.821Z,57.12
2018-06-17T07:27:36.687Z,57.13
2018-06-17T07:28:36.918Z,57.25
2018-06-17T07:29:36.765Z,57.09
2018-06-17T07:30:36.913Z,57.22
2018-06-17T07:31:36.873Z,57.05
2018-06-17T07:32:36.876Z,57.21
2018-06-17T07:33:36.792Z,57
2018-06-17T07:34:36.697Z,57.26
2018-06-17T07:35:36.788Z,57.25
2018-06-17T07:36:36.693Z,57.07
2018-06-17T07:37:36.767Z,57.18
2018-06-17T07:38:36.922Z,57.11
2018-06-17T07:39:36.651Z,57
2018-06-17T07:40:36.773Z,57.21
2018-06-17T07:41:36.867Z,57.16
2018-06-17T07:42:36.738Z,57.12
2018-06-17T07:43:37.021Z,57.14
2018-06-17T07:44:36.925Z,57.09
2018-06-17T07:45:36.657Z,57.09
2018-06-17T07:46:36.731Z,57.12
2018-06-17T07:47:36.754Z,57.13
2018-06-17T07:48:36.936Z,57.18
2018-06-17T07:49:36.826Z,56.6
2018-06-17T07:50:36.724Z,56.99
2018-06-17T07:51:36.897Z,56.65
2018-06-17T07:52:36.988Z,56.85
2018-06-17T07:53:36.964Z,56.72
2018-06-17T07:54:36.729Z,56.55
2018-06-17T07:55:36.795Z,55.71
2018-06-17T07:56:36.905Z,54.2
2018-06-17T07:57:36.737Z,52.66
2018-06-17T07:58:36.950Z,52.66
2018-06-17T07:59:36.731Z,52.84
2018-06-17T08:00:36.998Z,52.86
2018-06-17T08:01:36.828Z,53.37
2018-06-17T08:02:36.685Z,53.65
2018-06-17T08:03:36.709Z,53.69
2018-06-17T08:04:36.998Z,53.58
2018-06-17T08:05:36.853Z,53.57
2018-06-17T08:06:36.668Z,53.46
2018-06-17T08:07:36.949Z,53.39
2018-06-17T08:08:36.844Z,53.2
2018-06-17T08:09:36.880Z,53.46
2018-06-17T08:10:36.799Z,53.41
2018-06-17T08:11:36.740Z,53.6
2018-06-17T08:12:36.726Z,53.59
2018-06-17T08:13:36.704Z,53.86
2018-06-17T08:14:36.792Z,54.1
2018-06-17T08:15:36.970Z,53.98
2018-06-17T08:16:36.866Z,54.19
2018-06-17T08:17:36.949Z,54.38
2018-06-17T08:18:36.755Z,54.46
2018-06-17T08:19:36.800Z,54.67
2018-06-17T08:20:36.805Z,54.66
2018-06-17T08:21:36.648Z,54.63
2018-06-17T08:22:36.721Z,54.65
2018-06-17T08:23:36.714Z,54.66
2018-06-17T08:24:36.761Z,54.79
2018-06-17T08:25:36.856Z,54.74
2018-06-17T08:26:36.894Z,54.99
2018-06-17T08:27:36.925Z,54.96
2018-06-17T08:28:37.433Z,54.9
2018-06-17T08:29:37.672Z,55.06
2018-06-17T08:30:47.579Z,55.04
2018-06-17T08:31:37.450Z,55.18
2018-06-17T08:32:37.315Z,55.29
2018-06-17T08:33:38.513Z,55.15
2018-06-17T08:34:37.452Z,55.09
2018-06-17T08:35:37.341Z,55.03
2018-06-17T08:36:36.668Z,55.15
2018-06-17T08:37:36.681Z,55.25
2018-06-17T08:38:36.689Z,55.15
2018-06-17T08:39:36.880Z,55.19
2018-06-17T08:40:36.829Z,55.16
2018-06-17T08:41:36.748Z,55.22
2018-06-17T08:42:36.698Z,55.16
2018-06-17T08:43:36.924Z,55.13
2018-06-17T08:44:36.847Z,55.22
2018-06-17T08:45:36.855Z,55.45
2018-06-17T08:46:36.672Z,55.21
2018-06-17T08:47:36.723Z,55.23
2018-06-17T08:48:37.051Z,55.26
2018-06-17T08:49:36.745Z,55.33
2018-06-17T08:50:36.811Z,55.5
2018-06-17T08:51:36.678Z,55.44
2018-06-17T08:52:36.712Z,55.55
2018-06-17T08:53:36.847Z,55.54
2018-06-17T08:54:36.802Z,55.61
2018-06-17T08:55:36.671Z,55.57
2018-06-17T08:56:36.876Z,55.64
2018-06-17T08:57:36.808Z,55.69
2018-06-17T08:58:36.908Z,55.66
2018-06-17T08:59:36.837Z,55.85
2018-06-17T09:00:36.858Z,55.87
2018-06-17T09:01:36.748Z,55.8
2018-06-17T09:02:36.901Z,55.85
2018-06-17T09:03:36.852Z,55.88
2018-06-17T09:04:37.041Z,55.67
2018-06-17T09:05:36.709Z,55.72
2018-06-17T09:06:36.760Z,55.81
2018-06-17T09:07:36.778Z,55.73
2018-06-17T09:08:36.806Z,55.86
2018-06-17T09:09:37.159Z,56.01
2018-06-17T09:10:36.934Z,55.88
2018-06-17T09:11:36.846Z,55.87
2018-06-17T09:12:36.680Z,55.8
2018-06-17T09:13:36.841Z,55.8
2018-06-17T09:14:36.849Z,55.84
2018-06-17T09:15:36.949Z,55.92
2018-06-17T09:16:36.767Z,56
2018-06-17T09:17:37.123Z,55.86
2018-06-17T09:18:36.892Z,55.94
2018-06-17T09:19:36.829Z,55.84
2018-06-17T09:20:36.817Z,55.94
2018-06-17T09:21:36.977Z,55.98
2018-06-17T09:22:36.678Z,56.01
2018-06-17T09:23:36.919Z,56
2018-06-17T09:24:36.852Z,55.88
2018-06-17T09:25:36.830Z,55.82
2018-06-17T09:26:36.761Z,55.81
2018-06-17T09:27:36.965Z,55.96
2018-06-17T09:28:36.712Z,55.86
2018-06-17T09:29:36.827Z,55.8
2018-06-17T09:30:37.039Z,55.82
2018-06-17T09:31:36.653Z,55.91
2018-06-17T09:32:36.959Z,55.8
2018-06-17T09:33:36.927Z,55.96
2018-06-17T09:34:36.809Z,55.92
2018-06-17T09:35:36.831Z,55.71
2018-06-17T09:36:36.869Z,56.09
2018-06-17T09:37:36.860Z,55.96
2018-06-17T09:38:36.834Z,55.93
2018-06-17T09:39:36.819Z,55.87
2018-06-17T09:40:36.703Z,55.98
2018-06-17T09:41:36.679Z,55.92
2018-06-17T09:42:36.764Z,56
2018-06-17T09:43:36.719Z,55.88
2018-06-17T09:44:36.672Z,55.96
2018-06-17T09:45:36.859Z,55.94
2018-06-17T09:46:36.690Z,56.26
2018-06-17T09:47:36.795Z,56.22
2018-06-17T09:48:36.747Z,56.33
2018-06-17T09:49:36.680Z,56.1
2018-06-17T09:50:36.689Z,56.17
2018-06-17T09:51:36.842Z,56.21
2018-06-17T09:52:36.748Z,56.33
2018-06-17T09:53:36.695Z,56.19
2018-06-17T09:54:36.834Z,56.27
2018-06-17T09:55:36.823Z,56.29
2018-06-17T09:56:36.812Z,56.21
2018-06-17T09:57:36.673Z,56.27
2018-06-17T09:58:36.660Z,56.28
2018-06-17T09:59:36.907Z,56.23
2018-06-17T10:00:36.895Z,56.17
2018-06-17T10:01:36.984Z,56.24
2018-06-17T10:02:36.855Z,56.26
2018-06-17T10:03:36.908Z,56.34
2018-06-17T10:04:36.949Z,56.38
2018-06-17T10:05:37.007Z,56.34
2018-06-17T10:06:36.949Z,56.33
2018-06-17T10:07:36.720Z,56.22
2018-06-17T10:08:36.842Z,56.24
2018-06-17T10:09:36.910Z,56.04
2018-06-17T10:10:36.649Z,56.11
2018-06-17T10:11:36.739Z,56.25
2018-06-17T10:12:36.686Z,56.25
2018-06-17T10:13:36.922Z,56.21
2018-06-17T10:14:36.677Z,56.26
2018-06-17T10:15:36.891Z,56.17
2018-06-17T10:16:36.765Z,56.24
2018-06-17T10:17:36.778Z,56.26
2018-06-17T10:18:36.881Z,56.16
2018-06-17T10:19:36.955Z,56.23
2018-06-17T10:20:36.956Z,56.28
2018-06-17T10:21:36.846Z,56.21
2018-06-17T10:22:36.667Z,56.25
2018-06-17T10:23:36.806Z,56.26
2018-06-17T10:24:36.780Z,56.29
2018-06-17T10:25:36.841Z,56.28
2018-06-17T10:26:36.634Z,56.17
2018-06-17T10:27:36.776Z,56.43
2018-06-17T10:28:36.708Z,56.19
2018-06-17T10:29:36.669Z,56.34
2018-06-17T10:30:36.852Z,56.26
2018-06-17T10:31:36.776Z,56.17
2018-06-17T10:32:36.750Z,56.23
2018-06-17T10:33:36.790Z,56.2
2018-06-17T10:34:36.895Z,56.29
2018-06-17T10:35:36.794Z,56.16
2018-06-17T10:36:36.631Z,56.16
2018-06-17T10:37:36.750Z,56.14
2018-06-17T10:38:36.765Z,56.34
2018-06-17T10:39:36.699Z,56.31
2018-06-17T10:40:36.678Z,56.34
2018-06-17T10:41:36.838Z,56.47
2018-06-17T10:42:36.684Z,56.39
2018-06-17T10:43:36.996Z,56.49
2018-06-17T10:44:36.676Z,56.55
2018-06-17T10:45:36.605Z,56.54
2018-06-17T10:46:36.922Z,56.49
2018-06-17T10:47:37.127Z,56.4
2018-06-17T10:48:36.825Z,56.4
2018-06-17T10:49:36.847Z,56.43
2018-06-17T10:50:37.117Z,56.43
2018-06-17T10:51:36.672Z,56.43
2018-06-17T10:52:36.795Z,56.45
2018-06-17T10:53:36.905Z,56.48
2018-06-17T10:54:36.547Z,56.59
2018-06-17T10:55:36.884Z,56.51
2018-06-17T10:56:36.687Z,56.49
2018-06-17T10:57:36.914Z,56.54
2018-06-17T10:58:37.029Z,56.58
2018-06-17T10:59:36.850Z,56.56
2018-06-17T11:00:36.720Z,56.53
2018-06-17T11:01:36.648Z,56.71
2018-06-17T11:02:36.813Z,56.63
2018-06-17T11:03:46.837Z,56.6
2018-06-17T11:04:36.640Z,56.64
2018-06-17T11:05:37.071Z,56.7
2018-06-17T11:06:36.865Z,56.65
2018-06-17T11:07:36.887Z,56.54
2018-06-17T11:08:36.638Z,56.73
2018-06-17T11:09:36.915Z,56.57
2018-06-17T11:10:36.705Z,56.59
2018-06-17T11:11:36.761Z,56.79
2018-06-17T11:12:36.825Z,56.91
2018-06-17T11:13:36.781Z,56.94
2018-06-17T11:14:36.970Z,56.77
2018-06-17T11:15:36.802Z,56.74
2018-06-17T11:16:36.997Z,56.88
2018-06-17T11:17:36.669Z,56.93
2018-06-17T11:18:36.863Z,56.78
2018-06-17T11:19:37.019Z,56.75
2018-06-17T11:20:36.949Z,56.88
2018-06-17T11:21:36.676Z,56.85
2018-06-17T11:22:36.813Z,56.88
2018-06-17T11:23:36.774Z,56.84
2018-06-17T11:24:36.701Z,56.86
2018-06-17T11:25:36.869Z,56.95
2018-06-17T11:26:36.835Z,56.92
2018-06-17T11:27:36.906Z,57.17
2018-06-17T11:28:36.839Z,56.83
2018-06-17T11:29:36.902Z,57.01
2018-06-17T11:30:36.805Z,57.2
2018-06-17T11:31:36.898Z,57.07
2018-06-17T11:32:36.737Z,56.96
2018-06-17T11:33:39.316Z,57.19
2018-06-17T11:34:36.691Z,56.93
2018-06-17T11:35:36.677Z,57.03
2018-06-17T11:36:36.779Z,57.05
2018-06-17T11:37:36.691Z,56.76
2018-06-17T11:38:36.665Z,57.04
2018-06-17T11:39:36.858Z,57.13
2018-06-17T11:40:36.666Z,56.97
2018-06-17T11:41:36.840Z,57.03
2018-06-17T11:42:36.744Z,56.99
2018-06-17T11:43:36.731Z,57.11
2018-06-17T11:44:37.122Z,57.03
2018-06-17T11:45:36.707Z,57.05
2018-06-17T11:46:36.841Z,57.12
2018-06-17T11:47:36.764Z,57.03
2018-06-17T11:48:37.113Z,57.06
2018-06-17T11:49:36.819Z,57.24
2018-06-17T11:50:36.583Z,57.33
2018-06-17T11:51:36.940Z,57.43
2018-06-17T11:52:36.807Z,57.68
2018-06-17T11:53:36.878Z,57.55
2018-06-17T11:54:36.718Z,57.58
2018-06-17T11:55:36.681Z,57.54
2018-06-17T11:56:36.826Z,57.58
2018-06-17T11:57:36.849Z,57.39
2018-06-17T11:58:36.685Z,57.51
2018-06-17T11:59:36.840Z,57.42
2018-06-17T12:00:36.682Z,57.44
2018-06-17T12:01:37.108Z,57.59
2018-06-17T12:02:36.808Z,57.52
2018-06-17T12:03:36.789Z,57.75
2018-06-17T12:04:36.809Z,57.89
2018-06-17T12:05:37.481Z,57.47
2018-06-17T12:06:36.815Z,57.54
2018-06-17T12:07:36.807Z,57.46
2018-06-17T12:08:36.679Z,57.56
2018-06-17T12:09:36.651Z,57.49
2018-06-17T12:10:36.683Z,57.52
2018-06-17T12:11:36.843Z,57.49
2018-06-17T12:12:36.815Z,57.38
2018-06-17T12:13:36.843Z,57.55
2018-06-17T12:14:36.670Z,57.42
2018-06-17T12:15:36.915Z,57.54
2018-06-17T12:16:36.733Z,57.44
2018-06-17T12:17:36.817Z,57.44
2018-06-17T12:18:36.683Z,57.35
2018-06-17T12:19:36.643Z,57.57
2018-06-17T12:20:36.870Z,57.65
2018-06-17T12:21:37.013Z,57.7
2018-06-17T12:22:36.791Z,57.25
2018-06-17T12:23:36.700Z,57.29
2018-06-17T12:24:36.698Z,57.44
2018-06-17T12:25:36.798Z,57.36
2018-06-17T12:26:37.041Z,57.12
2018-06-17T12:27:36.890Z,56.93
2018-06-17T12:28:36.821Z,57.52
2018-06-17T12:29:37.108Z,57.4
2018-06-17T12:30:36.828Z,57.34
2018-06-17T12:31:36.887Z,57.42
2018-06-17T12:32:36.812Z,57.6
2018-06-17T12:33:15.636Z,57.49
2018-06-17T12:34:15.594Z,56.92
2018-06-17T12:35:15.830Z,56.79
2018-06-17T12:36:15.877Z,56.71
2018-06-17T12:37:15.889Z,56.66
2018-06-17T12:38:15.856Z,56.67
2018-06-17T12:39:15.613Z,56.46
2018-06-17T12:40:15.655Z,56.72
2018-06-17T12:41:15.656Z,56.54
2018-06-17T12:42:15.658Z,56.24
2018-06-17T12:43:15.697Z,56.58
2018-06-17T12:44:15.576Z,56.52
2018-06-17T12:45:15.455Z,56.34
2018-06-17T12:46:15.758Z,56.71
2018-06-17T12:47:15.607Z,56.16
2018-06-17T12:48:15.761Z,56.41
2018-06-17T12:49:15.600Z,56.15
2018-06-17T12:50:16.465Z,56.41
2018-06-17T12:51:15.543Z,56.58
2018-06-17T12:52:15.609Z,56.26
2018-06-17T12:52:57.850Z,56.52
2018-06-17T12:53:57.862Z,56.5
2018-06-17T12:54:58.042Z,56.43